Time;durP1;ratioP1;P1;durP2;ratioP2;P2;SDS_P1;SDS_P2;PMS_P1;PMS_P2;Temp;Humidity;BMP_temperature;BMP_pressure;BME280_temperature;BME280_humidity;BME280_pressure;Samples;Min_cycle;Max_cycle;Signal;HPM_P1;HPM_P2
2020/12/17 00:01:57;;;;;;;13.43;8.87;;;5.90;99.90;;;;;;5127770;28;20200;-82
2020/12/17 00:04:29;;;;;;;12.43;7.77;;;5.80;99.90;;;;;;5127924;29;20193;-72
2020/12/17 00:07:00;;;;;;;14.40;8.40;;;5.80;99.90;;;;;;5125280;29;20328;-70
2020/12/17 00:09:32;;;;;;;14.87;7.83;;;5.70;99.90;;;;;;5124796;29;20239;-70
2020/12/17 00:12:03;;;;;;;15.67;9.07;;;5.70;99.90;;;;;;5124941;29;20194;-70
2020/12/17 00:14:36;;;;;;;13.77;7.93;;;5.70;99.90;;;;;;5125057;29;20224;-69
2020/12/17 00:17:08;;;;;;;16.60;9.30;;;5.70;99.90;;;;;;5088078;29;20257;-70
2020/12/17 00:19:42;;;;;;;18.97;10.40;;;5.70;99.90;;;;;;5088209;29;20300;-71
2020/12/17 00:22:13;;;;;;;16.27;9.70;;;5.70;99.90;;;;;;5087793;29;20206;-72
2020/12/17 00:24:45;;;;;;;23.07;11.37;;;5.70;99.90;;;;;;5089438;29;20210;-76
2020/12/17 00:27:16;;;;;;;21.57;10.87;;;5.70;99.90;;;;;;5074536;29;20563;-73
2020/12/17 00:33:42;;;;;;;18.00;10.00;;;5.70;99.90;;;;;;5087886;29;20177;-71
2020/12/17 00:36:18;;;;;;;18.57;9.73;;;5.70;99.90;;;;;;5178597;28;20217;-70
2020/12/17 00:38:50;;;;;;;17.03;10.67;;;5.70;99.90;;;;;;5187762;28;20199;-70
2020/12/17 00:41:22;;;;;;;17.00;9.63;;;5.60;99.90;;;;;;5169885;28;20194;-71
2020/12/17 00:43:54;;;;;;;21.63;10.83;;;5.60;99.90;;;;;;5170119;28;20203;-71
2020/12/17 00:51:02;;;;;;;20.53;10.37;;;5.60;99.90;;;;;;5146778;28;20192;-72
2020/12/17 00:53:34;;;;;;;19.17;10.40;;;5.60;99.90;;;;;;5146692;28;20295;-69
2020/12/17 00:56:06;;;;;;;19.00;11.23;;;5.60;99.90;;;;;;5146550;28;20192;-72
2020/12/17 00:58:37;;;;;;;21.17;10.73;;;5.60;99.90;;;;;;5146628;28;20626;-70
2020/12/17 01:04:55;;;;;;;24.23;11.43;;;5.60;99.90;;;;;;5146656;28;20219;-72
2020/12/17 01:07:26;;;;;;;22.00;11.80;;;5.70;99.90;;;;;;5146006;28;20192;-74
2020/12/17 01:09:58;;;;;;;19.97;10.53;;;5.70;99.90;;;;;;5150363;28;20239;-69
2020/12/17 01:12:31;;;;;;;22.93;11.73;;;5.70;99.90;;;;;;5150692;28;20196;-68
2020/12/17 01:15:02;;;;;;;22.57;10.73;;;5.70;99.90;;;;;;5149747;28;20196;-71
2020/12/17 01:17:33;;;;;;;20.20;10.47;;;5.70;99.90;;;;;;5150211;28;20193;-69
2020/12/17 01:20:05;;;;;;;19.40;10.47;;;5.70;99.90;;;;;;5150630;28;20243;-68
2020/12/17 01:22:36;;;;;;;21.87;10.53;;;5.70;99.90;;;;;;5149325;28;20691;-71
2020/12/17 01:25:08;;;;;;;22.57;10.87;;;5.70;99.90;;;;;;5148775;28;20212;-72
2020/12/17 01:27:39;;;;;;;24.63;11.93;;;5.70;99.90;;;;;;5150464;28;20196;-70
2020/12/17 01:30:11;;;;;;;20.23;10.23;;;5.70;99.90;;;;;;5150350;28;20204;-69
2020/12/17 01:32:42;;;;;;;23.20;10.20;;;5.70;99.90;;;;;;5151182;28;20192;-69
2020/12/17 01:35:14;;;;;;;19.00;9.93;;;5.70;99.90;;;;;;5152872;28;20697;-70
2020/12/17 01:37:45;;;;;;;16.17;8.40;;;5.70;99.90;;;;;;5153303;28;20196;-71
2020/12/17 01:40:17;;;;;;;14.87;8.30;;;5.70;99.90;;;;;;5155908;28;20196;-70
2020/12/17 01:42:48;;;;;;;18.07;8.53;;;5.70;99.90;;;;;;5156321;28;20196;-71
2020/12/17 01:45:19;;;;;;;15.33;7.83;;;5.70;99.90;;;;;;5155659;28;20200;-68
2020/12/17 01:47:52;;;;;;;13.17;7.17;;;5.70;99.90;;;;;;5155420;28;20216;-70
2020/12/17 01:50:24;;;;;;;12.40;7.70;;;5.70;99.90;;;;;;5186728;28;20239;-76
2020/12/17 01:52:57;;;;;;;14.80;8.43;;;5.70;99.90;;;;;;5192428;28;20207;-71
2020/12/17 01:55:31;;;;;;;11.83;7.20;;;5.70;99.90;;;;;;5174381;28;20603;-72
2020/12/17 01:58:04;;;;;;;15.13;7.67;;;5.70;99.90;;;;;;5191067;28;20202;-70
2020/12/17 02:00:37;;;;;;;11.33;7.30;;;5.70;99.90;;;;;;5192659;28;20198;-75
2020/12/17 02:03:09;;;;;;;12.83;7.00;;;5.80;99.90;;;;;;5193011;28;20210;-70
2020/12/17 02:05:40;;;;;;;10.03;6.70;;;5.80;99.90;;;;;;5193379;28;20199;-75
2020/12/17 02:08:14;;;;;;;12.60;7.60;;;5.80;99.90;;;;;;5194134;28;20246;-71
2020/12/17 02:10:46;;;;;;;16.00;8.17;;;5.80;99.90;;;;;;5197033;28;20193;-71
2020/12/17 02:13:32;;;;;;;14.63;7.77;;;5.80;99.90;;;;;;5192845;28;20572;-69
2020/12/17 02:16:09;;;;;;;14.20;8.17;;;5.80;99.90;;;;;;5190364;28;20195;-68
2020/12/17 02:18:40;;;;;;;14.73;8.80;;;5.80;99.90;;;;;;5190264;28;20195;-70
2020/12/17 02:21:13;;;;;;;13.77;7.87;;;5.80;99.90;;;;;;5189646;28;20642;-69
2020/12/17 02:23:46;;;;;;;13.97;8.30;;;5.80;99.90;;;;;;5189930;28;20195;-69
2020/12/17 02:26:18;;;;;;;15.60;9.20;;;5.80;99.90;;;;;;5172164;28;20195;-72
2020/12/17 02:28:50;;;;;;;14.03;8.60;;;5.80;99.90;;;;;;5189474;28;20215;-69
2020/12/17 02:31:24;;;;;;;16.37;9.20;;;5.80;99.90;;;;;;5189211;28;20655;-69
2020/12/17 02:33:56;;;;;;;14.93;8.60;;;5.80;99.90;;;;;;5189267;28;20202;-71
2020/12/17 02:36:27;;;;;;;15.20;8.93;;;5.80;99.90;;;;;;5189676;28;20192;-72
2020/12/17 02:39:00;;;;;;;16.70;9.07;;;5.80;99.90;;;;;;5190103;28;20195;-71
2020/12/17 02:41:31;;;;;;;15.13;8.67;;;5.80;99.90;;;;;;5190811;28;20589;-69
2020/12/17 02:44:03;;;;;;;15.03;8.07;;;5.80;99.90;;;;;;5189605;28;20206;-69
2020/12/17 02:46:34;;;;;;;11.73;7.37;;;5.90;99.90;;;;;;5189547;28;20536;-70
2020/12/17 02:49:06;;;;;;;14.13;8.37;;;5.90;99.90;;;;;;5188746;28;20599;-70
2020/12/17 02:51:39;;;;;;;16.00;8.13;;;5.90;99.90;;;;;;5188682;28;20286;-71
2020/12/17 02:54:10;;;;;;;17.00;9.40;;;5.90;99.90;;;;;;5188499;28;20194;-70
2020/12/17 02:56:42;;;;;;;14.63;8.57;;;5.90;99.90;;;;;;5188825;28;20557;-70
2020/12/17 02:59:13;;;;;;;14.37;8.20;;;5.90;99.90;;;;;;5188645;28;20199;-69
2020/12/17 03:01:45;;;;;;;15.50;8.47;;;5.80;99.90;;;;;;5188670;28;20199;-69
2020/12/17 03:04:16;;;;;;;13.63;7.73;;;5.90;99.90;;;;;;5171142;28;20199;-70
2020/12/17 03:06:47;;;;;;;13.73;7.77;;;5.80;99.90;;;;;;5171132;28;20195;-68
2020/12/17 03:09:19;;;;;;;14.53;8.93;;;5.90;99.90;;;;;;5188150;28;20265;-70
2020/12/17 03:11:51;;;;;;;15.13;8.60;;;5.80;99.90;;;;;;5188532;28;20653;-69
2020/12/17 03:14:23;;;;;;;19.67;9.13;;;5.90;99.90;;;;;;5188580;28;20709;-72
2020/12/17 03:16:54;;;;;;;19.67;9.17;;;5.80;99.90;;;;;;5189605;28;20239;-70
2020/12/17 03:19:26;;;;;;;16.50;9.47;;;5.80;99.90;;;;;;5188712;28;20195;-70
2020/12/17 03:21:57;;;;;;;17.40;9.23;;;5.80;99.90;;;;;;5188138;28;20210;-71
2020/12/17 03:24:28;;;;;;;15.30;9.57;;;5.80;99.90;;;;;;5188041;28;20191;-71
2020/12/17 03:27:00;;;;;;;15.63;9.40;;;5.80;99.90;;;;;;5188379;28;20199;-72
2020/12/17 03:29:31;;;;;;;16.27;9.73;;;5.80;99.90;;;;;;5187666;28;20328;-72
2020/12/17 03:32:02;;;;;;;14.80;9.47;;;5.80;99.90;;;;;;5187078;28;20207;-70
2020/12/17 03:34:34;;;;;;;16.60;9.60;;;5.80;99.90;;;;;;5188364;28;20562;-70
2020/12/17 03:37:08;;;;;;;17.07;9.23;;;5.80;99.90;;;;;;5188333;28;20194;-70
2020/12/17 03:39:39;;;;;;;14.33;9.33;;;5.80;99.90;;;;;;5187618;28;20203;-71
2020/12/17 03:42:10;;;;;;;15.87;10.10;;;5.80;99.90;;;;;;5187696;28;20191;-75
2020/12/17 03:44:42;;;;;;;16.43;9.37;;;5.80;99.90;;;;;;5187758;28;20199;-69
2020/12/17 03:47:13;;;;;;;15.80;9.57;;;5.80;99.90;;;;;;5187093;28;20209;-69
2020/12/17 03:49:45;;;;;;;19.73;10.60;;;5.80;99.90;;;;;;5186886;28;20246;-71
2020/12/17 03:52:16;;;;;;;18.30;11.73;;;5.80;99.90;;;;;;5187497;28;20560;-70
2020/12/17 03:54:48;;;;;;;19.27;11.20;;;5.70;99.90;;;;;;5187491;28;20562;-69
2020/12/17 03:57:20;;;;;;;21.40;11.70;;;5.80;99.90;;;;;;5187421;28;20245;-70
2020/12/17 03:59:51;;;;;;;20.00;12.47;;;5.80;99.90;;;;;;5187384;28;20572;-69
2020/12/17 04:02:22;;;;;;;21.13;12.77;;;5.80;99.90;;;;;;5187334;28;20193;-70
2020/12/17 04:04:54;;;;;;;24.13;12.77;;;5.80;99.90;;;;;;5187267;28;20195;-73
2020/12/17 04:07:25;;;;;;;26.10;14.90;;;5.80;99.90;;;;;;5187038;28;20566;-69
2020/12/17 04:09:57;;;;;;;25.00;14.40;;;5.80;99.90;;;;;;5186639;28;20225;-72
2020/12/17 04:12:30;;;;;;;28.00;15.73;;;5.80;99.90;;;;;;5186796;28;20196;-71
2020/12/17 04:15:03;;;;;;;24.93;15.70;;;5.80;99.90;;;;;;5187131;28;20201;-70
2020/12/17 04:17:34;;;;;;;24.47;15.27;;;5.80;99.90;;;;;;5187189;28;20199;-71
2020/12/17 04:20:06;;;;;;;30.20;16.10;;;5.80;99.90;;;;;;5186692;28;20186;-70
2020/12/17 04:22:37;;;;;;;25.93;14.80;;;5.80;99.90;;;;;;5153155;28;20237;-69
2020/12/17 04:25:09;;;;;;;29.70;16.77;;;5.80;99.90;;;;;;5187048;28;20188;-70
2020/12/17 04:27:40;;;;;;;28.30;16.50;;;5.80;99.90;;;;;;5186892;28;20206;-69
2020/12/17 04:30:11;;;;;;;28.37;16.93;;;5.70;99.90;;;;;;5186871;28;20230;-68
2020/12/17 04:32:43;;;;;;;31.67;17.27;;;5.70;99.90;;;;;;5186795;28;20557;-72
2020/12/17 04:35:14;;;;;;;35.23;18.93;;;5.70;99.90;;;;;;5186533;28;20213;-69
2020/12/17 04:37:45;;;;;;;33.33;18.90;;;5.70;99.90;;;;;;5186558;28;20194;-68
2020/12/17 04:40:17;;;;;;;35.40;18.97;;;5.70;99.90;;;;;;5169201;28;20198;-67
2020/12/17 04:42:49;;;;;;;38.23;20.93;;;5.70;99.90;;;;;;5186500;28;20642;-69
2020/12/17 04:49:10;;;;;;;38.80;19.93;;;5.70;99.90;;;;;;5186476;28;20318;-69
2020/12/17 04:51:41;;;;;;;39.17;21.07;;;5.60;99.90;;;;;;5186378;28;20238;-67
2020/12/17 04:54:14;;;;;;;37.93;21.37;;;5.60;99.90;;;;;;5186535;28;20638;-68
2020/12/17 04:56:51;;;;;;;39.83;23.23;;;5.60;99.90;;;;;;5186316;28;20198;-69
2020/12/17 04:59:36;;;;;;;42.00;22.83;;;5.60;99.90;;;;;;5186348;28;20634;-69
2020/12/17 05:05:57;;;;;;;45.30;23.80;;;5.60;99.90;;;;;;5186448;28;20182;-69
2020/12/17 05:08:28;;;;;;;48.43;24.07;;;5.50;99.90;;;;;;5186161;28;20304;-71
2020/12/17 05:10:59;;;;;;;52.80;25.90;;;5.50;99.90;;;;;;5186411;28;20559;-69
2020/12/17 05:13:31;;;;;;;50.57;26.83;;;5.50;99.90;;;;;;5186724;28;20202;-69
2020/12/17 05:16:03;;;;;;;51.73;27.03;;;5.50;99.90;;;;;;5186603;28;20201;-70
2020/12/17 05:18:34;;;;;;;52.80;27.23;;;5.50;99.90;;;;;;5186761;28;20199;-69
2020/12/17 05:21:07;;;;;;;49.70;25.73;;;5.40;99.90;;;;;;5186745;28;20202;-72
2020/12/17 05:23:39;;;;;;;45.03;24.13;;;5.40;99.90;;;;;;5186112;28;20206;-70
2020/12/17 05:26:11;;;;;;;51.40;25.70;;;5.40;99.90;;;;;;5185974;28;20191;-70
2020/12/17 05:28:43;;;;;;;50.67;26.43;;;5.40;99.90;;;;;;5186347;28;20289;-69
2020/12/17 05:31:21;;;;;;;53.63;26.20;;;5.40;99.90;;;;;;5186510;28;20204;-69
2020/12/17 05:33:52;;;;;;;54.67;27.87;;;5.40;99.90;;;;;;5187002;28;20207;-69
2020/12/17 05:36:25;;;;;;;56.90;28.37;;;5.40;99.90;;;;;;5186281;28;20222;-71
2020/12/17 05:39:19;;;;;;;48.73;26.50;;;5.30;99.90;;;;;;5186446;28;20198;-69
2020/12/17 05:41:53;;;;;;;54.97;28.70;;;5.30;99.90;;;;;;5168699;28;20246;-70
2020/12/17 05:44:30;;;;;;;52.60;28.57;;;5.30;99.90;;;;;;5185872;28;20191;-69
2020/12/17 05:47:02;;;;;;;56.03;28.27;;;5.30;99.90;;;;;;5186135;28;20191;-71
2020/12/17 05:49:33;;;;;;;64.50;30.77;;;5.30;99.90;;;;;;5186096;28;20207;-70
2020/12/17 05:52:16;;;;;;;59.90;29.90;;;5.30;99.90;;;;;;5186360;28;20250;-69
2020/12/17 05:54:54;;;;;;;63.60;30.40;;;5.30;99.90;;;;;;5169867;28;20203;-69
2020/12/17 05:57:25;;;;;;;61.33;31.13;;;5.30;99.90;;;;;;5191288;28;20191;-71
2020/12/17 06:00:04;;;;;;;65.60;32.07;;;5.30;99.90;;;;;;5193574;28;20187;-72
2020/12/17 06:02:36;;;;;;;70.87;32.60;;;5.30;99.90;;;;;;5193855;28;20191;-72
2020/12/17 06:05:10;;;;;;;60.53;32.07;;;5.30;99.90;;;;;;5194064;28;20195;-71
2020/12/17 06:07:45;;;;;;;62.27;31.73;;;5.30;99.90;;;;;;5191936;28;20195;-71
2020/12/17 06:10:28;;;;;;;68.10;33.07;;;5.30;99.90;;;;;;5189771;28;20224;-73
2020/12/17 06:13:01;;;;;;;66.60;33.47;;;5.30;99.90;;;;;;5190227;28;20201;-72
2020/12/17 06:15:33;;;;;;;69.20;33.50;;;5.30;99.90;;;;;;5189874;28;20203;-74
2020/12/17 06:18:04;;;;;;;71.40;34.47;;;5.20;99.90;;;;;;5189823;28;20198;-70
2020/12/17 06:20:36;;;;;;;73.57;33.87;;;5.30;99.90;;;;;;5189036;28;20195;-76
2020/12/17 06:23:12;;;;;;;68.33;33.87;;;5.20;99.90;;;;;;5189385;28;20191;-71
2020/12/17 06:25:45;;;;;;;71.20;34.47;;;5.30;99.90;;;;;;5189467;28;20210;-72
2020/12/17 06:28:43;;;;;;;69.10;33.93;;;5.20;99.90;;;;;;5172997;28;20219;-73
2020/12/17 06:35:25;;;;;;;71.90;34.93;;;5.30;99.90;;;;;;5189083;28;20172;-72
2020/12/17 06:38:06;;;;;;;83.33;36.17;;;5.20;99.90;;;;;;5126437;29;20205;-73
2020/12/17 06:40:41;;;;;;;72.67;35.00;;;5.30;99.90;;;;;;5111064;29;20193;-72
2020/12/17 06:43:32;;;;;;;76.43;35.30;;;5.20;99.90;;;;;;5126130;29;20211;-73
2020/12/17 06:46:04;;;;;;;73.30;33.80;;;5.30;99.90;;;;;;5126179;29;20208;-73
2020/12/17 06:48:38;;;;;;;77.27;36.13;;;5.30;99.90;;;;;;5125969;29;20252;-72
2020/12/17 06:51:30;;;;;;;76.03;36.30;;;5.30;99.90;;;;;;5126526;29;20624;-72
2020/12/17 06:54:07;;;;;;;77.13;35.30;;;5.30;99.90;;;;;;5126135;29;20197;-72
2020/12/17 06:56:58;;;;;;;80.93;37.30;;;5.30;99.90;;;;;;5126305;29;20209;-73
2020/12/17 06:59:29;;;;;;;81.47;36.33;;;5.30;99.90;;;;;;5125967;29;20209;-73
2020/12/17 07:02:01;;;;;;;80.47;37.77;;;5.30;99.90;;;;;;5126032;29;20205;-73
2020/12/17 07:04:39;;;;;;;83.37;37.37;;;5.30;99.90;;;;;;5126050;29;20197;-72
2020/12/17 07:07:18;;;;;;;85.07;37.50;;;5.20;99.90;;;;;;5125847;28;20193;-73
2020/12/17 07:09:53;;;;;;;88.17;38.40;;;5.20;99.90;;;;;;5126183;29;20707;-72
2020/12/17 07:12:36;;;;;;;94.97;39.50;;;5.30;99.90;;;;;;5126174;29;20192;-72
2020/12/17 07:15:26;;;;;;;90.27;39.30;;;5.30;99.90;;;;;;5162969;28;20716;-71
2020/12/17 07:18:23;;;;;;;94.83;38.93;;;5.30;99.90;;;;;;5170474;28;20191;-71
2020/12/17 07:21:06;;;;;;;95.03;38.13;;;5.20;99.90;;;;;;5187983;28;20289;-71
2020/12/17 07:23:39;;;;;;;98.13;40.13;;;5.20;99.90;;;;;;5187926;28;20191;-71
2020/12/17 07:26:14;;;;;;;88.73;38.70;;;5.20;99.90;;;;;;5187615;28;20202;-73
2020/12/17 07:28:54;;;;;;;93.63;40.43;;;5.20;99.90;;;;;;5187976;28;20560;-73
2020/12/17 07:35:11;;;;;;;100.47;39.23;;;5.30;99.90;;;;;;5187545;28;20198;-71
2020/12/17 07:37:58;;;;;;;96.60;38.93;;;5.30;99.90;;;;;;5186953;28;20221;-71
2020/12/17 07:40:37;;;;;;;100.30;39.53;;;5.30;99.90;;;;;;5187312;28;20195;-71
2020/12/17 07:43:13;;;;;;;92.13;40.73;;;5.30;99.90;;;;;;5187343;28;20226;-70
2020/12/17 07:45:51;;;;;;;89.27;38.57;;;5.30;99.90;;;;;;5187822;28;20655;-72
2020/12/17 07:52:44;;;;;;;103.00;40.03;;;5.30;99.90;;;;;;5187132;28;20218;-72
2020/12/17 07:55:16;;;;;;;93.83;39.97;;;5.30;99.90;;;;;;5186993;28;20277;-73
2020/12/17 07:57:47;;;;;;;95.20;40.73;;;5.30;99.90;;;;;;5187374;28;20198;-73
2020/12/17 08:00:20;;;;;;;99.10;42.23;;;5.30;99.90;;;;;;5187479;28;20195;-75
2020/12/17 08:06:47;;;;;;;95.13;40.10;;;5.30;99.90;;;;;;5187135;28;20174;-74
2020/12/17 08:09:19;;;;;;;96.87;41.03;;;5.40;99.90;;;;;;5188234;28;20253;-74
2020/12/17 08:11:55;;;;;;;92.07;39.20;;;5.40;99.90;;;;;;5185900;28;20195;-71
2020/12/17 08:14:27;;;;;;;91.00;40.47;;;5.40;99.90;;;;;;5187121;28;20630;-72
2020/12/17 08:17:08;;;;;;;104.00;42.53;;;5.40;99.90;;;;;;5185763;28;20547;-72
2020/12/17 08:19:40;;;;;;;100.07;43.17;;;5.40;99.90;;;;;;5186330;28;20638;-72
2020/12/17 08:22:21;;;;;;;98.03;42.40;;;5.40;99.90;;;;;;5182436;28;20191;-75
2020/12/17 08:24:52;;;;;;;99.60;43.00;;;5.40;99.90;;;;;;5186478;28;20195;-70
2020/12/17 08:27:24;;;;;;;97.90;42.80;;;5.40;99.90;;;;;;5186902;28;20194;-74
2020/12/17 08:29:55;;;;;;;103.27;41.37;;;5.30;99.90;;;;;;5186562;28;20229;-70
2020/12/17 08:32:30;;;;;;;86.53;38.27;;;5.40;99.90;;;;;;5186952;28;20191;-72
2020/12/17 08:35:02;;;;;;;94.40;41.57;;;5.40;99.90;;;;;;5186714;28;20564;-71
2020/12/17 08:37:33;;;;;;;82.40;38.53;;;5.40;99.90;;;;;;5186405;28;20213;-75
2020/12/17 08:40:07;;;;;;;92.27;39.37;;;5.40;99.90;;;;;;5186097;28;20198;-74
2020/12/17 08:42:46;;;;;;;89.20;38.47;;;5.40;99.90;;;;;;5186556;28;20206;-73
2020/12/17 08:45:19;;;;;;;91.37;38.77;;;5.40;99.90;;;;;;5186205;28;20282;-73
2020/12/17 08:47:55;;;;;;;83.17;37.30;;;5.40;99.90;;;;;;5186961;28;20547;-73
2020/12/17 08:50:29;;;;;;;84.43;38.70;;;5.40;99.90;;;;;;5186473;28;20584;-71
2020/12/17 08:53:01;;;;;;;86.47;38.30;;;5.40;99.90;;;;;;5186608;28;20195;-72
2020/12/17 08:55:32;;;;;;;88.47;37.77;;;5.40;99.90;;;;;;5186376;28;20195;-74
2020/12/17 08:58:05;;;;;;;84.03;37.90;;;5.40;99.90;;;;;;5186293;28;20193;-72
2020/12/17 09:00:36;;;;;;;89.40;39.57;;;5.40;99.90;;;;;;5187950;28;20217;-72
2020/12/17 09:03:07;;;;;;;84.83;36.60;;;5.50;99.90;;;;;;5190185;28;20214;-75
2020/12/17 09:05:39;;;;;;;82.60;37.13;;;5.40;99.90;;;;;;5189967;28;20562;-72
2020/12/17 09:08:10;;;;;;;86.17;39.17;;;5.50;99.90;;;;;;5187984;28;20203;-73
2020/12/17 09:10:41;;;;;;;83.17;38.13;;;5.50;99.90;;;;;;5169863;28;20229;-74
2020/12/17 09:13:17;;;;;;;84.17;37.60;;;5.50;99.90;;;;;;5186697;28;20195;-73
2020/12/17 09:16:02;;;;;;;82.77;36.03;;;5.50;99.90;;;;;;5186678;28;20195;-72
2020/12/17 09:18:33;;;;;;;81.80;34.60;;;5.50;99.90;;;;;;5186759;28;20198;-74
2020/12/17 09:21:10;;;;;;;77.40;34.50;;;5.50;99.90;;;;;;5186869;28;20199;-73
2020/12/17 09:23:52;;;;;;;75.70;33.87;;;5.50;99.90;;;;;;5186718;28;20195;-73
2020/12/17 09:26:25;;;;;;;75.13;34.23;;;5.50;99.90;;;;;;5186086;28;20188;-73
2020/12/17 09:29:01;;;;;;;77.53;34.73;;;5.50;99.90;;;;;;5186182;28;20215;-74
2020/12/17 09:35:30;;;;;;;74.13;32.60;;;5.60;99.90;;;;;;5190074;28;20206;-73
2020/12/17 09:38:05;;;;;;;72.17;33.57;;;5.60;99.90;;;;;;5189878;28;20198;-74
2020/12/17 09:40:38;;;;;;;74.33;31.10;;;5.60;99.90;;;;;;5189868;28;20201;-72
2020/12/17 09:43:11;;;;;;;70.00;31.17;;;5.60;99.90;;;;;;5190118;28;20192;-72
2020/12/17 09:45:53;;;;;;;73.50;32.60;;;5.70;99.90;;;;;;5190199;28;20646;-74
2020/12/17 09:52:25;;;;;;;64.17;29.13;;;5.70;99.90;;;;;;5195110;28;20293;-72
2020/12/17 09:54:56;;;;;;;62.03;29.67;;;5.80;99.90;;;;;;5200132;28;20199;-71
2020/12/17 09:57:47;;;;;;;68.70;29.70;;;5.80;99.90;;;;;;5200115;28;20628;-77
2020/12/17 10:00:18;;;;;;;64.30;30.93;;;5.80;99.90;;;;;;5199297;28;20218;-73
2020/12/17 10:06:46;;;;;;;57.97;28.50;;;5.80;99.90;;;;;;5190576;28;20190;-74
2020/12/17 10:09:17;;;;;;;62.47;29.73;;;5.90;99.90;;;;;;5190381;28;20222;-77
2020/12/17 10:11:50;;;;;;;60.63;28.57;;;5.90;99.90;;;;;;5190906;28;20642;-74
2020/12/17 10:14:22;;;;;;;61.13;29.20;;;5.90;99.90;;;;;;5190670;28;20210;-75
2020/12/17 10:16:59;;;;;;;55.37;27.27;;;5.90;99.90;;;;;;5190525;28;20202;-75
2020/12/17 10:19:30;;;;;;;59.17;28.37;;;6.00;99.90;;;;;;5190329;28;20197;-74
2020/12/17 10:22:02;;;;;;;61.83;27.97;;;6.00;99.90;;;;;;5190479;28;20567;-78
2020/12/17 10:24:34;;;;;;;54.63;27.77;;;6.00;99.90;;;;;;5190259;28;20642;-79
2020/12/17 10:27:05;;;;;;;60.03;27.90;;;6.10;99.90;;;;;;5191332;28;20199;-78
2020/12/17 10:29:37;;;;;;;57.80;28.17;;;6.10;99.90;;;;;;5188519;28;20234;-74
2020/12/17 10:32:08;;;;;;;52.53;26.33;;;6.10;99.90;;;;;;5171826;28;20199;-76
2020/12/17 10:34:40;;;;;;;52.80;27.23;;;6.10;99.90;;;;;;5189360;28;20210;-76
2020/12/17 10:37:11;;;;;;;59.93;28.67;;;6.20;99.90;;;;;;5189396;28;20187;-75
2020/12/17 10:39:44;;;;;;;56.87;29.00;;;6.20;99.90;;;;;;5189218;28;20203;-74
2020/12/17 10:42:16;;;;;;;60.90;28.57;;;6.20;99.90;;;;;;5178373;28;20660;-71
2020/12/17 10:44:48;;;;;;;59.30;29.83;;;6.20;99.90;;;;;;5175059;28;20218;-73
2020/12/17 10:47:20;;;;;;;56.10;28.83;;;6.20;99.90;;;;;;5178970;28;20238;-74
2020/12/17 10:49:55;;;;;;;58.53;28.87;;;6.30;99.90;;;;;;5178231;28;20588;-75
2020/12/17 10:52:26;;;;;;;52.63;26.63;;;6.30;99.90;;;;;;5181701;28;20230;-75
2020/12/17 10:54:58;;;;;;;51.27;26.97;;;6.30;99.90;;;;;;5180084;28;20230;-75
2020/12/17 10:57:29;;;;;;;60.50;28.57;;;6.30;99.90;;;;;;5183136;28;20191;-78
2020/12/17 11:00:01;;;;;;;50.77;28.57;;;6.30;99.90;;;;;;5189023;28;20206;-70
2020/12/17 11:02:34;;;;;;;54.60;26.30;;;6.30;99.90;;;;;;5189069;28;20195;-71
2020/12/17 11:05:05;;;;;;;55.27;27.47;;;6.30;99.90;;;;;;5189353;28;20207;-70
2020/12/17 11:07:38;;;;;;;50.83;26.37;;;6.30;99.90;;;;;;5188486;28;20248;-70
2020/12/17 11:10:10;;;;;;;62.03;28.53;;;6.30;99.90;;;;;;5188321;28;20318;-71
2020/12/17 11:12:41;;;;;;;54.33;26.13;;;6.30;99.90;;;;;;5188967;28;20286;-76
2020/12/17 11:15:13;;;;;;;50.40;26.83;;;6.30;99.90;;;;;;5156154;28;20206;-76
2020/12/17 11:17:44;;;;;;;53.80;26.63;;;6.30;99.90;;;;;;5189067;28;20317;-73
2020/12/17 11:20:18;;;;;;;53.80;26.70;;;6.30;99.90;;;;;;5188059;28;20199;-73
2020/12/17 11:22:49;;;;;;;56.17;27.40;;;6.30;99.90;;;;;;5188245;28;20202;-72
2020/12/17 11:25:21;;;;;;;54.93;27.40;;;6.30;99.90;;;;;;5188158;28;20205;-73
2020/12/17 11:27:52;;;;;;;48.13;25.67;;;6.30;99.90;;;;;;5185858;28;20206;-75
2020/12/17 11:30:23;;;;;;;49.70;26.57;;;6.20;99.90;;;;;;5187871;28;20218;-75
2020/12/17 11:32:55;;;;;;;53.30;27.43;;;6.30;99.90;;;;;;5187652;28;20191;-73
2020/12/17 11:35:27;;;;;;;51.70;26.93;;;6.30;99.90;;;;;;5187610;28;20191;-69
2020/12/17 11:37:59;;;;;;;51.20;26.73;;;6.40;99.90;;;;;;5188201;28;20657;-72
2020/12/17 11:40:31;;;;;;;51.30;26.73;;;6.40;99.90;;;;;;5187763;28;20546;-71
2020/12/17 11:43:03;;;;;;;55.10;27.20;;;6.40;99.90;;;;;;5187481;28;20192;-70
2020/12/17 11:45:35;;;;;;;49.57;26.90;;;6.40;99.90;;;;;;5187737;28;20200;-72
2020/12/17 11:48:06;;;;;;;56.33;28.70;;;6.40;99.90;;;;;;5187571;28;20206;-70
2020/12/17 11:50:38;;;;;;;56.83;29.40;;;6.40;99.90;;;;;;5187228;28;20251;-72
2020/12/17 11:53:10;;;;;;;54.87;27.93;;;6.40;99.90;;;;;;5169544;28;20195;-70
2020/12/17 11:55:41;;;;;;;63.40;31.57;;;6.40;99.90;;;;;;5170024;28;20195;-73
2020/12/17 11:58:13;;;;;;;54.33;27.23;;;6.40;99.90;;;;;;5186124;28;20202;-73
2020/12/17 12:00:45;;;;;;;52.97;27.50;;;6.40;99.90;;;;;;5188483;28;20206;-73
2020/12/17 12:03:17;;;;;;;54.13;27.80;;;6.30;99.90;;;;;;5189416;28;20187;-70
2020/12/17 12:05:48;;;;;;;53.13;28.00;;;6.30;99.90;;;;;;5189769;28;20206;-70
2020/12/17 12:08:20;;;;;;;51.47;26.87;;;6.30;99.90;;;;;;5189826;28;20209;-71
2020/12/17 12:10:52;;;;;;;52.97;27.03;;;6.20;99.90;;;;;;5189591;28;20219;-70
2020/12/17 12:13:24;;;;;;;55.53;27.93;;;6.20;99.90;;;;;;5188774;28;20526;-70
2020/12/17 12:15:56;;;;;;;50.87;27.33;;;6.20;99.90;;;;;;5187795;28;20195;-69
2020/12/17 12:18:27;;;;;;;56.13;28.63;;;6.20;99.90;;;;;;5187021;28;20199;-69
2020/12/17 12:21:00;;;;;;;58.00;28.33;;;6.20;99.90;;;;;;5186295;28;20804;-72
2020/12/17 12:23:32;;;;;;;55.03;28.60;;;6.20;99.90;;;;;;5187019;28;20195;-71
2020/12/17 12:26:04;;;;;;;51.97;28.90;;;6.20;99.90;;;;;;5186886;28;20191;-72
2020/12/17 12:28:39;;;;;;;60.40;32.00;;;6.20;99.90;;;;;;5186466;28;20526;-69
2020/12/17 12:31:14;;;;;;;59.87;31.33;;;6.30;99.90;;;;;;5186720;28;20191;-69
2020/12/17 12:33:45;;;;;;;60.77;29.00;;;6.30;99.90;;;;;;5186730;28;20186;-71
2020/12/17 12:36:17;;;;;;;58.23;29.87;;;6.20;99.90;;;;;;5186569;28;20191;-71
2020/12/17 12:38:48;;;;;;;56.27;29.30;;;6.30;99.90;;;;;;5186730;28;20191;-70
2020/12/17 12:41:20;;;;;;;58.57;29.00;;;6.30;99.90;;;;;;5186567;28;20191;-71
2020/12/17 12:44:10;;;;;;;52.53;29.10;;;6.20;99.90;;;;;;5186057;28;20195;-71
2020/12/17 12:46:42;;;;;;;57.87;28.87;;;6.30;99.90;;;;;;5186483;28;20225;-70
2020/12/17 12:49:14;;;;;;;52.57;28.87;;;6.20;99.90;;;;;;5186442;28;20261;-71
2020/12/17 12:51:47;;;;;;;60.30;29.87;;;6.20;99.90;;;;;;5170394;28;20238;-73
2020/12/17 12:54:19;;;;;;;56.50;29.27;;;6.20;99.90;;;;;;5184637;28;20214;-70
2020/12/17 12:56:52;;;;;;;59.33;30.77;;;6.20;99.90;;;;;;5186322;28;20191;-70
2020/12/17 12:59:24;;;;;;;61.37;30.13;;;6.30;99.90;;;;;;5186382;28;20563;-70
2020/12/17 13:01:56;;;;;;;59.63;29.97;;;6.30;99.90;;;;;;5186267;28;20222;-71
2020/12/17 13:04:27;;;;;;;60.00;30.73;;;6.30;99.90;;;;;;5188429;28;20291;-70
2020/12/17 13:06:58;;;;;;;54.80;28.47;;;6.20;99.90;;;;;;5172976;28;20195;-69
2020/12/17 13:09:30;;;;;;;60.10;30.57;;;6.20;99.90;;;;;;5190262;28;20226;-73
2020/12/17 13:12:02;;;;;;;61.30;30.83;;;6.20;99.90;;;;;;5190512;28;20191;-71
2020/12/17 13:14:33;;;;;;;63.60;31.93;;;6.20;99.90;;;;;;5190489;28;20191;-71
2020/12/17 13:17:05;;;;;;;64.93;31.03;;;6.20;99.90;;;;;;5190421;28;20195;-71
2020/12/17 13:19:36;;;;;;;62.10;29.43;;;6.20;99.90;;;;;;5189875;28;20301;-72
2020/12/17 13:22:08;;;;;;;70.60;31.47;;;6.20;99.90;;;;;;5189549;28;20222;-72
2020/12/17 13:24:39;;;;;;;58.80;30.00;;;6.20;99.90;;;;;;5172340;28;20202;-71
2020/12/17 13:27:10;;;;;;;61.90;31.13;;;6.20;99.90;;;;;;5189746;28;20191;-71
2020/12/17 13:29:42;;;;;;;64.67;32.13;;;6.20;99.90;;;;;;5189711;28;20229;-70
2020/12/17 13:32:14;;;;;;;69.10;32.33;;;6.20;99.90;;;;;;5190083;28;20191;-71
2020/12/17 13:34:45;;;;;;;66.43;31.97;;;6.20;99.90;;;;;;5190102;28;20630;-72
2020/12/17 13:37:17;;;;;;;68.10;31.10;;;6.10;99.90;;;;;;5189550;28;20188;-71
2020/12/17 13:39:48;;;;;;;60.67;29.10;;;6.10;99.90;;;;;;5190106;28;20561;-71
2020/12/17 13:42:22;;;;;;;61.97;29.83;;;6.20;99.90;;;;;;5189030;28;20199;-71
2020/12/17 13:44:54;;;;;;;64.60;32.03;;;6.20;99.90;;;;;;5188299;28;20187;-70
2020/12/17 13:47:27;;;;;;;63.10;32.37;;;6.20;99.90;;;;;;5188877;28;20559;-71
2020/12/17 13:49:58;;;;;;;64.03;31.53;;;6.10;99.90;;;;;;5191391;28;20214;-72
2020/12/17 13:52:30;;;;;;;70.17;33.10;;;6.20;99.90;;;;;;5191145;28;20230;-71
2020/12/17 13:55:04;;;;;;;66.27;32.97;;;6.20;99.90;;;;;;5188922;28;20202;-69
2020/12/17 13:57:36;;;;;;;72.43;32.90;;;6.10;99.90;;;;;;5190368;28;20191;-72